.
WxDataArchive / Data Records for 2007-01-07
2007-01-06 January 2007 2007-01-08

Data Records for Sunday, 07 January 2007

Time	Temp	Chill	HIndex	Humid	Dewpt	 Wind 	HiWind	WindDir	Rain 	Barom 
-----	----	-----	------	-----	-----	------	------	-------	-----	----- 
00:00	30.9	30.9	30.9	90	28.3	0	0	---	0.00	30.161 
00:05	30.6	30.6	30.6	90	28.0	0	0	---	0.00	30.161 
00:10	30.3	30.3	30.3	90	27.7	0	0	---	0.00	30.161 
00:15	30.0	30.0	30.0	90	27.4	0	0	---	0.00	30.165 
00:20	29.8	29.8	29.8	90	27.2	0	0	---	0.00	30.165 
00:25	29.5	29.5	29.5	90	26.9	0	0	---	0.00	30.165 
00:30	29.4	29.4	29.4	90	26.8	0	0	---	0.00	30.174 
00:35	29.1	29.1	29.1	91	26.8	0	0	---	0.00	30.174 
00:40	29.1	29.1	29.1	91	26.8	0	0	---	0.00	30.174 
00:45	29.1	29.1	29.1	92	27.1	0	0	---	0.00	30.178 
00:50	29.1	29.1	29.1	92	27.1	0	0	---	0.00	30.178 
00:55	29.0	29.0	29.0	93	27.2	0	0	---	0.00	30.178 
01:00	29.0	29.0	29.0	93	27.2	0	0	---	0.00	30.181 
01:05	28.8	28.8	28.8	93	27.0	0	0	---	0.00	30.181 
01:10	28.7	28.7	28.7	93	26.9	0	0	---	0.00	30.181 
01:15	28.5	28.5	28.5	93	26.7	0	0	---	0.00	30.173 
01:20	28.4	28.4	28.4	93	26.6	0	0	---	0.00	30.173 
01:25	28.4	28.4	28.4	93	26.6	0	0	---	0.00	30.173 
01:30	28.2	28.2	28.2	93	26.4	0	0	---	0.00	30.182 
01:35	28.1	28.1	28.1	93	26.3	0	0	---	0.00	30.182 
01:40	27.9	27.9	27.9	93	26.1	0	0	---	0.00	30.182 
01:45	27.8	27.8	27.8	93	26.0	0	0	---	0.00	30.179 
01:50	27.6	27.6	27.6	93	25.8	0	0	---	0.00	30.179 
01:55	27.5	27.5	27.5	93	25.7	0	0	---	0.00	30.179 
02:00	27.3	27.3	27.3	93	25.5	0	0	---	0.00	30.182 
02:05	27.2	27.2	27.2	93	25.4	0	0	---	0.00	30.182 
02:10	27.2	27.2	27.2	93	25.4	0	0	---	0.00	30.182 
02:15	27.2	27.2	27.2	94	25.7	0	0	---	0.00	30.185 
02:20	27.2	27.2	27.2	94	25.7	0	0	---	0.00	30.185 
02:25	27.0	27.0	27.0	94	25.5	0	0	---	0.00	30.185 
02:30	27.0	27.0	27.0	94	25.5	0	0	---	0.00	30.191 
02:35	26.9	26.9	26.9	94	25.4	0	0	---	0.00	30.191 
02:40	26.9	26.9	26.9	94	25.4	0	0	---	0.00	30.191 
02:45	26.7	26.7	26.7	94	25.2	0	0	---	0.00	30.193 
02:50	26.6	26.6	26.6	94	25.1	0	0	---	0.00	30.193 
02:55	26.6	26.6	26.6	94	25.1	0	0	---	0.00	30.193 
03:00	26.6	26.6	26.6	94	25.1	0	0	---	0.00	30.198 
03:05	26.4	26.4	26.4	94	24.9	0	0	---	0.00	30.198 
03:10	26.3	26.3	26.3	94	24.8	0	0	---	0.00	30.198 
03:15	26.1	26.1	26.1	94	24.6	0	0	---	0.00	30.208 
03:20	26.1	26.1	26.1	94	24.6	0	0	---	0.00	30.208 
03:25	26.0	26.0	26.0	94	24.5	0	0	---	0.00	30.208 
03:30	26.0	26.0	26.0	94	24.5	0	0	---	0.00	30.211 
03:35	25.8	25.8	25.8	94	24.3	0	0	---	0.00	30.211 
03:40	25.8	25.8	25.8	94	24.3	0	0	---	0.00	30.211 
03:45	25.8	25.8	25.8	94	24.3	0	0	---	0.00	30.200 
03:50	25.7	25.7	25.7	94	24.2	0	0	---	0.00	30.200 
03:55	25.6	25.6	25.6	94	24.1	0	0	---	0.00	30.200 
04:00	25.6	25.6	25.6	94	24.1	0	0	---	0.00	30.214 
04:05	25.6	25.6	25.6	94	24.1	0	0	---	0.00	30.214 
04:10	25.7	25.7	25.7	94	24.2	0	0	---	0.00	30.214 
04:15	25.7	25.7	25.7	94	24.2	0	0	---	0.00	30.200 
04:20	25.6	25.6	25.6	94	24.1	0	0	---	0.00	30.200 
04:25	25.4	25.4	25.4	94	23.9	0	0	---	0.00	30.200 
04:30	25.4	25.4	25.4	94	23.9	0	0	---	0.00	30.201 
04:35	25.3	25.3	25.3	94	23.8	0	0	---	0.00	30.201 
04:40	25.1	25.1	25.1	94	23.6	0	0	---	0.00	30.201 
04:45	25.1	25.1	25.1	94	23.6	0	0	---	0.00	30.197 
04:50	25.3	25.3	25.3	94	23.8	0	0	---	0.00	30.197 
04:55	25.4	25.4	25.4	94	23.9	0	0	---	0.00	30.197 
05:00	25.6	25.6	25.6	95	24.4	0	0	---	0.00	30.190 
05:05	25.7	25.7	25.7	95	24.5	0	0	---	0.00	30.190 
05:10	25.8	25.8	25.8	95	24.6	0	0	---	0.00	30.190 
05:15	26.0	26.0	26.0	95	24.8	0	0	---	0.00	30.187 
05:20	26.0	26.0	26.0	95	24.8	0	0	---	0.00	30.187 
05:25	26.1	26.1	26.1	95	24.9	0	0	---	0.00	30.187 
05:30	26.1	26.1	26.1	95	24.9	0	0	---	0.00	30.185 
05:35	26.1	26.1	26.1	95	24.9	0	0	---	0.00	30.185 
05:40	26.0	26.0	26.0	95	24.8	0	0	---	0.00	30.185 
05:45	26.0	26.0	26.0	95	24.8	0	0	---	0.00	30.199 
05:50	26.0	26.0	26.0	95	24.8	0	0	---	0.00	30.199 
05:55	25.8	25.8	25.8	95	24.6	0	0	---	0.00	30.199 
06:00	25.8	25.8	25.8	95	24.6	0	0	---	0.00	30.192 
06:05	26.0	26.0	26.0	95	24.8	0	1	248	0.00	30.192 
06:10	26.1	26.1	26.1	96	25.1	0	1	248	0.00	30.192 
06:15	26.4	26.4	26.4	96	25.4	0	1	248	0.00	30.183 
06:20	26.6	26.6	26.6	96	25.6	0	1	248	0.00	30.183 
06:25	26.7	26.7	26.7	96	25.7	0	1	248	0.00	30.183 
06:30	26.7	26.7	26.7	96	25.7	0	0	---	0.00	30.183 
06:35	26.7	26.7	26.7	96	25.7	0	0	---	0.00	30.183 
06:40	27.0	27.0	27.0	96	26.0	0	1	248	0.00	30.183 
06:45	27.2	27.2	27.2	96	26.2	0	1	248	0.00	30.193 
06:50	27.3	27.3	27.3	96	26.3	0	0	---	0.00	30.193 
06:55	27.5	27.5	27.5	96	26.5	0	0	---	0.00	30.193 
07:00	27.6	27.6	27.6	96	26.6	0	1	248	0.00	30.190 
07:05	27.9	27.9	27.9	96	26.9	0	1	248	0.00	30.190 
07:10	28.2	28.2	28.2	97	27.5	0	2	180	0.00	30.190 
07:15	28.4	28.4	28.4	97	27.7	0	1	180	0.00	30.180 
07:20	28.5	28.5	28.5	97	27.8	1	2	180	0.00	30.180 
07:25	28.8	28.8	28.8	97	28.1	1	2	68	0.00	30.180 
07:30	29.1	29.1	29.1	97	28.4	1	3	68	0.00	30.152 
07:35	29.4	29.4	29.4	97	28.7	1	2	68	0.00	30.152 
07:40	29.5	29.5	29.5	97	28.8	1	3	68	0.00	30.152 
07:45	29.7	29.7	29.7	97	29.0	0	2	68	0.00	30.168 
07:50	29.8	29.8	29.8	97	29.1	0	1	68	0.00	30.168 
07:55	30.0	30.0	30.0	97	29.3	0	1	68	0.00	30.168 
08:00	30.0	30.0	30.0	97	29.3	0	2	68	0.00	30.172 
08:05	30.1	30.1	30.1	97	29.4	0	2	68	0.00	30.172 
08:10	30.3	30.3	30.3	97	29.6	1	2	68	0.00	30.172 
08:15	30.3	30.3	30.3	97	29.6	1	2	68	0.00	30.164 
08:20	30.6	30.6	30.6	97	29.9	0	2	68	0.00	30.164 
08:25	30.6	30.6	30.6	97	29.9	1	3	68	0.00	30.164 
08:30	30.7	30.7	30.7	97	30.0	1	3	112	0.00	30.153 
08:35	30.9	30.9	30.9	97	30.2	1	2	112	0.00	30.153 
08:40	31.0	31.0	31.0	97	30.3	1	2	112	0.00	30.153 
08:45	31.0	31.0	31.0	97	30.3	0	2	112	0.00	30.168 
08:50	31.2	31.2	31.2	97	30.4	0	2	112	0.00	30.168 
08:55	31.2	31.2	31.2	97	30.4	0	2	112	0.00	30.168 
09:00	31.2	31.2	31.2	97	30.4	0	1	112	0.00	30.172 
09:05	31.5	31.5	31.5	97	30.7	2	4	112	0.00	30.172 
09:10	31.6	31.6	31.6	97	30.8	1	3	90	0.00	30.172 
09:15	31.8	31.8	31.8	98	31.3	1	3	90	0.00	30.151 
09:20	31.9	31.9	31.9	98	31.4	1	3	90	0.00	30.151 
09:25	32.1	32.1	32.1	98	31.6	1	3	90	0.00	30.151 
09:30	32.2	32.2	32.2	98	31.7	2	4	112	0.00	30.138 
09:35	32.4	32.4	32.4	98	31.9	2	3	112	0.00	30.138 
09:40	32.4	32.4	32.4	98	31.9	2	4	112	0.00	30.138 
09:45	32.4	32.4	32.4	98	31.9	2	4	90	0.00	30.141 
09:50	32.5	32.5	32.5	97	31.7	2	7	112	0.00	30.141 
09:55	32.7	32.7	32.7	97	31.9	1	4	112	0.00	30.141 
10:00	32.8	32.8	32.8	97	32.0	2	4	112	0.00	30.136 
10:05	32.9	32.9	32.9	97	32.1	2	5	112	0.00	30.136 
10:10	32.9	32.9	32.9	97	32.1	1	4	112	0.00	30.136 
10:15	33.1	33.1	33.1	97	32.3	1	3	112	0.00	30.129 
10:20	33.2	33.2	33.2	97	32.4	2	4	90	0.00	30.129 
10:25	33.4	33.4	33.4	97	32.6	2	6	112	0.00	30.129 
10:30	33.4	33.4	33.4	96	32.4	2	4	112	0.00	30.136 
10:35	33.4	33.4	33.4	96	32.4	2	4	112	0.00	30.136 
10:40	33.5	33.5	33.5	96	32.5	1	2	112	0.00	30.136 
10:45	33.5	33.5	33.5	96	32.5	2	4	112	0.00	30.133 
10:50	33.7	33.7	33.7	95	32.4	2	5	112	0.00	30.133 
10:55	33.8	33.8	33.8	95	32.5	2	4	112	0.00	30.133 
11:00	33.8	33.8	33.8	95	32.5	0	2	90	0.00	30.129 
11:05	34.0	34.0	34.0	95	32.7	1	3	112	0.00	30.129 
11:10	34.0	34.0	34.0	95	32.7	1	3	90	0.00	30.129 
11:15	34.1	34.1	34.1	95	32.8	1	3	90	0.00	30.123 
11:20	34.3	34.3	34.3	94	32.8	1	4	112	0.00	30.123 
11:25	34.4	34.4	34.4	94	32.9	0	2	90	0.00	30.123 
11:30	34.6	34.6	34.6	94	33.1	1	2	90	0.00	30.115 
11:35	34.7	34.7	34.7	94	33.2	1	4	90	0.00	30.115 
11:40	34.7	34.7	34.7	93	32.9	0	2	90	0.00	30.115 
11:45	34.9	34.9	34.9	93	33.1	0	3	90	0.00	30.073 
11:50	34.9	34.9	34.9	93	33.1	1	4	90	0.00	30.073 
11:55	34.9	34.9	34.9	93	33.1	1	3	90	0.00	30.073 
12:00	34.9	34.9	34.9	93	33.1	1	2	90	0.00	30.071 
12:05	34.9	34.9	34.9	93	33.1	1	3	90	0.00	30.071 
12:10	34.9	34.9	34.9	93	33.1	0	2	90	0.00	30.071 
12:15	34.9	34.9	34.9	93	33.1	1	3	90	0.00	30.067 
12:20	34.9	34.9	34.9	93	33.1	1	2	90	0.00	30.067 
12:25	34.9	34.9	34.9	93	33.1	0	2	90	0.00	30.067 
12:30	35.0	35.0	35.0	94	33.5	0	1	90	0.00	30.028 
12:35	35.0	35.0	35.0	94	33.5	1	3	90	0.00	30.028 
12:40	34.9	34.9	34.9	94	33.4	2	4	112	0.00	30.028 
12:45	34.9	34.9	34.9	94	33.4	1	2	112	0.00	30.012 
12:50	34.9	34.9	34.9	94	33.4	2	4	112	0.00	30.012 
12:55	34.7	34.7	34.7	94	33.2	1	4	90	0.00	30.012 
13:00	34.7	34.7	34.7	94	33.2	1	4	112	0.00	29.997 
13:05	34.7	34.7	34.7	94	33.2	1	4	90	0.00	29.997 
13:10	34.7	34.7	34.7	94	33.2	1	4	112	0.00	29.997 
13:15	34.7	34.7	34.7	94	33.2	1	4	112	0.00	29.968 
13:20	34.7	34.7	34.7	94	33.2	1	4	112	0.00	29.968 
13:25	34.7	34.7	34.7	95	33.4	1	5	112	0.00	29.968 
13:30	34.7	34.7	34.7	94	33.2	3	5	112	0.00	29.964 
13:35	34.7	34.7	34.7	94	33.2	1	4	112	0.00	29.964 
13:40	34.7	34.7	34.7	94	33.2	2	5	112	0.00	29.964 
13:45	34.9	34.9	34.9	94	33.4	3	6	112	0.00	29.947 
13:50	34.9	34.9	34.9	94	33.4	2	4	112	0.00	29.947 
13:55	34.9	34.9	34.9	94	33.4	2	4	112	0.00	29.947 
14:00	34.9	34.9	34.9	94	33.4	1	4	112	0.00	29.934 
14:05	35.0	35.0	35.0	94	33.5	1	4	112	0.01	29.934 
14:10	35.0	35.0	35.0	94	33.5	2	5	90	0.00	29.934 
14:15	35.0	35.0	35.0	95	33.7	2	6	90	0.00	29.904 
14:20	35.2	35.2	35.2	95	33.9	2	4	112	0.00	29.904 
14:25	35.2	35.2	35.2	95	33.9	1	4	90	0.00	29.904 
14:30	35.3	35.3	35.3	95	34.0	1	3	112	0.00	29.887 
14:35	35.3	35.3	35.3	95	34.0	1	3	90	0.00	29.887 
14:40	35.5	35.5	35.5	95	34.2	1	2	90	0.00	29.887 
14:45	35.3	35.3	35.3	95	34.0	1	4	135	0.00	29.904 
14:50	35.5	35.5	35.5	95	34.2	1	4	90	0.01	29.904 
14:55	35.5	35.5	35.5	96	34.5	1	4	90	0.00	29.904 
15:00	35.5	35.5	35.5	95	34.2	2	4	112	0.00	29.901 
15:05	35.5	35.5	35.5	95	34.2	1	5	112	0.00	29.901 
15:10	35.5	35.5	35.5	95	34.2	1	4	112	0.00	29.901 
15:15	35.5	35.5	35.5	95	34.2	2	4	90	0.00	29.897 
15:20	35.5	35.5	35.5	95	34.2	1	3	90	0.00	29.897 
15:25	35.5	35.5	35.5	95	34.2	1	3	112	0.00	29.897 
15:30	35.5	35.5	35.5	96	34.5	2	4	90	0.00	29.889 
15:35	35.5	35.5	35.5	96	34.5	1	4	90	0.01	29.889 
15:40	35.5	35.5	35.5	96	34.5	2	4	90	0.00	29.889 
15:45	35.5	35.5	35.5	96	34.5	1	4	112	0.00	29.886 
15:50	35.5	35.5	35.5	96	34.5	2	5	90	0.00	29.886 
15:55	35.5	35.5	35.5	96	34.5	1	3	68	0.00	29.886 
16:00	35.5	35.5	35.5	96	34.5	1	2	90	0.00	29.878 
16:05	35.5	35.5	35.5	96	34.5	1	4	90	0.00	29.878 
16:10	35.6	35.6	35.6	96	34.6	0	3	90	0.00	29.878 
16:15	35.5	35.5	35.5	96	34.5	0	2	68	0.00	29.883 
16:20	35.5	35.5	35.5	96	34.5	1	3	22	0.00	29.883 
16:25	35.5	35.5	35.5	96	34.5	0	2	22	0.00	29.883 
16:30	35.5	35.5	35.5	96	34.5	0	1	22	0.00	29.884 
16:35	35.5	35.5	35.5	96	34.5	1	2	22	0.00	29.884 
16:40	35.5	35.5	35.5	96	34.5	1	3	45	0.00	29.884 
16:45	35.5	35.5	35.5	96	34.5	1	2	112	0.00	29.873 
16:50	35.5	35.5	35.5	96	34.5	0	1	112	0.00	29.873 
16:55	35.5	35.5	35.5	96	34.5	0	3	68	0.00	29.873 
17:00	35.5	35.5	35.5	96	34.5	1	2	68	0.00	29.866 
17:05	35.5	35.5	35.5	96	34.5	0	1	90	0.00	29.866 
17:10	35.5	35.5	35.5	96	34.5	1	3	90	0.00	29.866 
17:15	35.5	35.5	35.5	96	34.5	1	3	90	0.00	29.865 
17:20	35.5	35.5	35.5	96	34.5	1	4	90	0.00	29.865 
17:25	35.3	35.3	35.3	96	34.3	2	4	112	0.00	29.865 
17:30	35.3	35.3	35.3	96	34.3	1	4	112	0.00	29.857 
17:35	35.3	35.3	35.3	96	34.3	2	6	112	0.00	29.857 
17:40	35.3	35.3	35.3	96	34.3	1	4	112	0.00	29.857 
17:45	35.3	35.3	35.3	96	34.3	2	4	112	0.00	29.846 
17:50	35.2	35.2	35.2	96	34.2	2	6	112	0.00	29.846 
17:55	35.2	35.2	35.2	96	34.2	1	4	90	0.00	29.846 
18:00	35.2	35.2	35.2	96	34.2	1	3	45	0.00	29.842 
18:05	35.2	35.2	35.2	96	34.2	1	3	112	0.00	29.842 
18:10	35.2	35.2	35.2	96	34.2	0	2	45	0.00	29.842 
18:15	35.2	35.2	35.2	96	34.2	0	2	45	0.00	29.832 
18:20	35.2	35.2	35.2	96	34.2	2	6	112	0.00	29.832 
18:25	35.2	35.2	35.2	96	34.2	1	4	112	0.00	29.832 
18:30	35.0	35.0	35.0	96	34.0	2	5	112	0.01	29.825 
18:35	35.0	35.0	35.0	96	34.0	2	5	90	0.00	29.825 
18:40	35.0	35.0	35.0	96	34.0	2	4	112	0.00	29.825 
18:45	35.0	35.0	35.0	96	34.0	2	5	90	0.00	29.809 
18:50	34.9	34.9	34.9	96	33.9	2	4	112	0.00	29.809 
18:55	34.9	34.9	34.9	96	33.9	1	3	112	0.00	29.809 
19:00	34.9	34.9	34.9	96	33.9	1	4	112	0.00	29.797 
19:05	35.0	35.0	35.0	97	34.2	1	3	112	0.00	29.797 
19:10	35.0	35.0	35.0	97	34.2	1	3	112	0.00	29.797 
19:15	35.0	35.0	35.0	97	34.2	1	3	112	0.00	29.786 
19:20	35.0	35.0	35.0	97	34.2	1	3	112	0.00	29.786 
19:25	35.0	35.0	35.0	97	34.2	0	1	112	0.00	29.786 
19:30	35.0	35.0	35.0	97	34.2	0	2	112	0.00	29.778 
19:35	35.0	35.0	35.0	97	34.2	0	2	112	0.00	29.778 
19:40	35.0	35.0	35.0	97	34.2	0	2	112	0.00	29.778 
19:45	34.9	34.9	34.9	97	34.1	0	2	112	0.00	29.776 
19:50	34.9	34.9	34.9	97	34.1	0	2	112	0.00	29.776 
19:55	34.9	34.9	34.9	97	34.1	0	2	90	0.00	29.776 
20:00	34.9	34.9	34.9	97	34.1	0	1	90	0.00	29.775 
20:05	34.9	34.9	34.9	97	34.1	0	0	---	0.00	29.775 
20:10	34.9	34.9	34.9	97	34.1	0	0	---	0.00	29.775 
20:15	35.0	35.0	35.0	97	34.2	0	1	90	0.00	29.764 
20:20	35.0	35.0	35.0	97	34.2	0	0	---	0.00	29.764 
20:25	35.0	35.0	35.0	97	34.2	0	0	---	0.00	29.764 
20:30	35.0	35.0	35.0	97	34.2	0	0	---	0.00	29.760 
20:35	35.0	35.0	35.0	97	34.2	0	0	---	0.00	29.760 
20:40	35.0	35.0	35.0	97	34.2	0	1	90	0.00	29.760 
20:45	35.0	35.0	35.0	97	34.2	0	0	---	0.00	29.756 
20:50	35.0	35.0	35.0	97	34.2	0	0	---	0.00	29.756 
20:55	35.0	35.0	35.0	97	34.2	0	0	---	0.00	29.756 
21:00	35.0	35.0	35.0	97	34.2	0	0	---	0.01	29.745 
21:05	35.0	35.0	35.0	97	34.2	0	0	---	0.00	29.745 
21:10	35.2	35.2	35.2	97	34.4	0	0	---	0.00	29.745 
21:15	35.2	35.2	35.2	97	34.4	0	0	---	0.00	29.740 
21:20	35.2	35.2	35.2	97	34.4	0	0	---	0.00	29.740 
21:25	35.0	35.0	35.0	97	34.2	0	0	---	0.00	29.740 
21:30	35.2	35.2	35.2	97	34.4	0	0	---	0.00	29.743 
21:35	35.2	35.2	35.2	97	34.4	0	1	90	0.00	29.743 
21:40	35.2	35.2	35.2	97	34.4	0	0	---	0.01	29.743 
21:45	35.2	35.2	35.2	97	34.4	0	2	90	0.00	29.741 
21:50	35.2	35.2	35.2	97	34.4	0	1	90	0.00	29.741 
21:55	35.2	35.2	35.2	97	34.4	0	1	90	0.00	29.741 
22:00	35.0	35.0	35.0	97	34.2	0	1	90	0.01	29.733 
22:05	34.9	34.9	34.9	97	34.1	0	2	248	0.00	29.733 
22:10	34.9	34.9	34.9	97	34.1	0	0	---	0.00	29.733 
22:15	34.9	34.9	34.9	97	34.1	0	1	248	0.00	29.725 
22:20	34.9	34.9	34.9	97	34.1	0	1	248	0.00	29.725 
22:25	34.9	34.9	34.9	97	34.1	0	0	---	0.00	29.725 
22:30	34.9	34.9	34.9	97	34.1	0	2	248	0.00	29.723 
22:35	34.9	34.9	34.9	97	34.1	0	1	248	0.00	29.723 
22:40	34.9	34.9	34.9	97	34.1	0	1	248	0.00	29.723 
22:45	34.9	34.9	34.9	97	34.1	0	0	---	0.00	29.713 
22:50	34.9	34.9	34.9	97	34.1	0	1	248	0.00	29.713 
22:55	34.9	34.9	34.9	97	34.1	0	1	248	0.00	29.713 
23:00	34.7	34.7	34.7	97	33.9	0	1	248	0.00	29.712 
23:05	34.7	34.7	34.7	97	33.9	0	1	248	0.01	29.712 
23:10	34.7	34.7	34.7	97	33.9	0	1	248	0.00	29.712 
23:15	34.7	34.7	34.7	97	33.9	0	1	248	0.00	29.703 
23:20	34.7	34.7	34.7	97	33.9	0	2	248	0.00	29.703 
23:25	34.7	34.7	34.7	97	33.9	0	2	248	0.00	29.703 
23:30	34.9	34.9	34.9	97	34.1	1	3	248	0.00	29.694 
23:35	34.9	34.9	34.9	97	34.1	1	2	248	0.00	29.694 
23:40	34.9	34.9	34.9	97	34.1	1	3	248	0.00	29.694 
23:45	34.9	34.9	34.9	97	34.1	1	4	248	0.00	29.692 
23:50	35.0	35.0	35.0	97	34.2	1	3	225	0.00	29.692 
23:55	35.0	35.0	35.0	97	34.2	1	3	248	0.00	29.692 

CoCoRaHS
IN-AL-39
A2 Web Hosting
Creative Commons License
GoDaddy
Look for:

loaded 2017-12-12 07:14:18 • last modified 2010-11-18 10:43:29
Privacy PolicyDisclaimer
• wx.awcolley.com is powered by PmWiki v.2002016 •
• all content (unless otherwise noted) © 2017 A W Colley